Terminal Aerodrome Forecast
Issued by NWS

Home | Current Version | Previous Version | Graphics & Text | Print | Product List | Glossary On
Versions: 1 2 3 4 5 6 7 8 9 10 11 12 13 14 15 16 17 18 19 20 21
000
FTUS43 KGRB 262347 AAA
TAFATW
TAF AMD
KATW 262347Z 2700/2724 17012G18KT P6SM SCT020 BKN040
      TEMPO 2700/2702 21015G30KT 2SM SHRA BR BKN012 BKN035
     FM270200 21013G21KT P6SM SCT025 BKN040 WS015/24040KT
     FM271000 26014G22KT P6SM VCSH SCT012 BKN035
      TEMPO 2710/2714 5SM -SHRA BR BKN012
     FM271500 28012G18KT P6SM SCT020 BKN035
     FM271900 23010KT P6SM BKN035=

USA.gov is the U.S. government's official web portal to all federal, state and local government web resources and services.